• Join FlightAware (Why Join?)
  • Login
  • US Flag 
07:13AM EDT


 

Airport Tracker/Info


-or-


 

Live Flight TrackerFlight Track Log ✈ EJA831 ✈ 28-Sep-2013 ✈ KSMO - KCNY

Flight Track Log - Related Links

Times and Time Zones

All times are in EDT time to prevent confusion due to time zone crossing. See the EJA831 flight status page for this flight to view local times or setup timezone preferences in your user account.

Time Position Orientation Groundspeed Altitude Reporting Facility
EDT Latitude Longitude Course Direction KTS MPH feet Rate Location/Type
02:53PM 34.0000 -118.5000 61° Northeast 178 205 2,700  Level Southern California TRACON
02:53PM 33.9975 -118.5333 265° West 195 224 3,200 2,040 Climbing Los Angeles Center
02:54PM 34.0064 -118.6006 279° West 217 250 6,000 1,800 Climbing Los Angeles Center
02:55PM 34.0736 -118.5878 North 252 290 7,000 540 Climbing Los Angeles Center
02:56PM 34.1356 -118.5406 32° Northeast 275 316 7,200 1,380 Climbing Los Angeles Center
02:57PM 34.2011 -118.4892 33° Northeast 279 321 9,900 2,760 Climbing Los Angeles Center
02:58PM 34.1800 -118.5809 61° Northeast  Level FlightAware Approximate
02:59PM 34.2875 -118.4569 17° North 305 351 13,000  Level Los Angeles Center
03:00PM 34.3464 -118.4589 358° North 306 352 15,000 2,700 Climbing Los Angeles Center
03:01PM 34.4211 -118.3436 52° Northeast 336 387 18,700 2,760 Climbing Los Angeles Center
03:02PM 34.4561 -118.2333 69° East 349 402 20,800 1,920 Climbing Los Angeles Center
03:03PM 34.4886 -118.1297 69° East 364 419 22,700 2,040 Climbing Los Angeles Center
03:04PM 34.5333 -117.9850 69° East 382 440 25,100 2,160 Climbing Los Angeles Center
03:05PM 34.5714 -117.8625 69° East 389 448 27,200 1,800 Climbing Los Angeles Center
03:06PM 34.6092 -117.7406 69° East 389 448 28,900 1,740 Climbing Los Angeles Center
03:07PM 34.6467 -117.6158 70° East 395 455 30,900 1,980 Climbing Los Angeles Center
03:08PM 34.6964 -117.5042 62° Northeast 384 442 33,100 2,100 Climbing Los Angeles Center
03:09PM 34.7700 -117.3822 54° Northeast 377 434 35,300 1,800 Climbing Los Angeles Center
03:10PM 34.8311 -117.2800 54° Northeast 376 433 36,900 780 Climbing Los Angeles Center
03:11PM 34.8958 -117.1722 54° Northeast 398 458 37,000  Climbing Los Angeles Center
03:12PM 34.9656 -117.0592 53° Northeast 419 482 37,000  Level Los Angeles Center
03:13PM 35.0322 -116.9486 54° Northeast 409 471 37,000  Level Los Angeles Center
03:14PM 35.1094 -116.8197 54° Northeast 398 458 37,000  Level Los Angeles Center
03:15PM 35.1714 -116.7156 54° Northeast 387 445 37,000  Level Los Angeles Center
03:16PM 35.2333 -116.6108 54° Northeast 383 441 37,000  Level Los Angeles Center
03:17PM 35.2947 -116.5086 54° Northeast 377 434 37,000  Level Los Angeles Center
03:18PM 35.3561 -116.4050 54° Northeast 375 432 37,000  Level Los Angeles Center
03:19PM 35.4175 -116.3011 54° Northeast 378 435 37,000  Level Los Angeles Center
03:20PM 35.4914 -116.1753 54° Northeast 379 436 37,000  Level Los Angeles Center
03:21PM 35.5536 -116.0700 54° Northeast 380 437 37,000  Level Los Angeles Center
03:22PM 35.6156 -115.9644 54° Northeast 381 438 37,000  Level Los Angeles Center
03:23PM 35.6767 -115.8581 55° Northeast 380 437 37,000  Level Los Angeles Center
03:24PM 35.7381 -115.7533 54° Northeast 377 434 37,000  Level Los Angeles Center
03:25PM 35.8119 -115.6256 54° Northeast 382 440 37,000  Level Los Angeles Center
03:26PM 35.8742 -115.5192 54° Northeast 384 442 37,000  Level Los Angeles Center
03:27PM 35.9344 -115.4128 55° Northeast 383 441 37,000  Level Los Angeles Center
03:28PM 35.9947 -115.3081 55° Northeast 380 437 37,000  Level Los Angeles Center
03:30PM 36.0528 -115.2053 55° Northeast 371 427 37,000  Level Los Angeles Center
03:31PM 36.1169 -115.1083 51° Northeast 367 422 37,000  Level Los Angeles Center
03:32PM 36.2017 -115.0019 45° Northeast 364 419 37,000  Level Los Angeles Center
03:33PM 36.2717 -114.9150 45° Northeast 360 414 37,000  Level Los Angeles Center
03:35PM 36.3961 -114.7569 46° Northeast 357 411 37,000  Level Salt Lake Center
03:36PM 36.4772 -114.6508 46° Northeast 353 406 37,000  Level Salt Lake Center
03:37PM 36.5569 -114.5428 47° Northeast 354 407 37,000  Level Los Angeles Center
03:38PM 36.6242 -114.4544 47° Northeast 352 405 37,000  Level Los Angeles Center
03:39PM 36.6911 -114.3658 47° Northeast 351 404 37,000  Level Los Angeles Center
03:40PM 36.7578 -114.2758 47° Northeast 353 406 37,000  Level Los Angeles Center
03:41PM 36.8092 -114.1703 59° Northeast 354 407 37,000  Level Los Angeles Center
03:42PM 36.8600 -114.0642 59° Northeast 356 410 37,000  Level Los Angeles Center
03:43PM 36.9108 -113.9586 59° Northeast 355 409 37,000  Level Los Angeles Center
03:44PM 36.9711 -113.8350 59° Northeast 355 409 37,000  Level Los Angeles Center
03:45PM 37.0222 -113.7286 59° Northeast 356 410 37,000  Level Los Angeles Center
03:46PM 37.0736 -113.6231 59° Northeast 355 409 37,000  Level Los Angeles Center
03:47PM 37.1244 -113.5167 59° Northeast 356 410 37,000  Level Los Angeles Center
03:48PM 37.1750 -113.4094 59° Northeast 357 411 37,000  Level Los Angeles Center
03:49PM 37.2244 -113.3033 60° Northeast 355 409 37,000  Level Los Angeles Center
03:50PM 37.2844 -113.1758 59° Northeast 354 407 37,000  Level Los Angeles Center
03:51PM 37.3353 -113.0700 59° Northeast 355 409 37,000  Level Los Angeles Center
03:52PM 37.3842 -112.9631 60° Northeast 355 409 37,000  Level Los Angeles Center
03:53PM 37.4322 -112.8575 60° Northeast 354 407 37,000  Level Los Angeles Center
03:54PM 37.4811 -112.7514 60° Northeast 358 412 37,000  Level Salt Lake Center
03:55PM 37.5311 -112.6461 59° Northeast 358 412 37,000  Level Salt Lake Center
03:56PM 37.5806 -112.5403 59° Northeast 355 409 37,000  Level Salt Lake Center
03:57PM 37.6300 -112.4344 59° Northeast 353 406 37,000  Level Salt Lake Center
03:58PM 37.6789 -112.3272 60° Northeast 354 407 37,000  Level Salt Lake Center
03:59PM 37.7269 -112.2183 61° Northeast 355 409 37,000  Level Salt Lake Center
04:00PM 37.7742 -112.1081 62° Northeast 358 412 37,000  Level Salt Lake Center
04:01PM 37.8314 -111.9761 61° Northeast 358 412 37,000  Level Salt Lake Center
04:02PM 37.8783 -111.8664 62° Northeast 357 411 37,000  Level Salt Lake Center
04:03PM 37.9258 -111.7558 61° Northeast 358 412 37,000  Level Salt Lake Center
04:04PM 37.9733 -111.6453 61° Northeast 358 412 37,000  Level Salt Lake Center
04:05PM 38.0219 -111.5350 61° Northeast 359 413 37,000  Level Salt Lake Center
04:06PM 38.0681 -111.4242 62° Northeast 357 411 37,000 -1,140 Level Salt Lake Center
04:07PM 38.1175 -111.3100 61° Northeast 366 421 34,700 -2,640 Descending Salt Lake Center
04:08PM 38.1775 -111.1644 62° Northeast 385 443 31,600 -2,760 Descending Salt Lake Center
04:09PM 38.2272 -111.0475 62° Northeast 380 437 29,100 -2,400 Descending Salt Lake Center
04:10PM 38.2750 -110.9297 63° Northeast 376 433 26,700 -2,460 Descending Salt Lake Center
04:12PM 38.3247 -110.8053 63° Northeast 370 426 24,100 -2,400 Descending Salt Lake Center
04:13PM 38.3706 -110.6972 62° Northeast 365 420 21,800 -2,220 Descending Salt Lake Center
04:14PM 38.4133 -110.5931 62° Northeast 353 406 19,600 -2,100 Descending Salt Lake Center
04:15PM 38.4608 -110.4756 63° Northeast 340 391 17,500 -2,040 Descending Salt Lake Center
04:16PM 38.4989 -110.3808 63° Northeast 324 373 15,500 -2,100 Descending Salt Lake Center
04:17PM 38.5419 -110.2758 62° Northeast 310 357 13,200 -1,260 Descending Salt Lake Center
04:18PM 38.5761 -110.1928 62° Northeast 293 337 13,000 -240 Descending Salt Lake Center
04:19PM 38.6122 -110.1042 62° Northeast 268 308 12,800 -840 Descending Salt Lake Center
04:20PM 38.6444 -110.0258 62° Northeast 261 300 11,400 -900 Descending Salt Lake Center
04:21PM 38.6736 -109.9525 63° Northeast 253 291 11,000 -660 Descending Salt Lake Center
04:22PM 38.7261 -109.8925 42° Northeast 234 269 10,100 -540 Descending Salt Lake Center
04:23PM 38.7811 -109.8556 28° Northeast 230 265 10,000 -120 Descending Salt Lake Center